Time;durP1;ratioP1;P1;durP2;ratioP2;P2;SDS_P1;SDS_P2;PMS_P1;PMS_P2;Temp;Humidity;BMP_temperature;BMP_pressure;BME280_temperature;BME280_humidity;BME280_pressure;Samples;Min_cycle;Max_cycle;Signal;HPM_P1;HPM_P2
2021/04/15 00:01:43;;;;;;;6.07;2.95;;;6.10;99.90;;;;;;4996131;28;20046;-48
2021/04/15 00:04:11;;;;;;;4.50;3.10;;;6.00;99.90;;;;;;5014261;28;20409;-48
2021/04/15 00:06:37;;;;;;;4.07;2.80;;;6.00;99.90;;;;;;5013254;28;20034;-48
2021/04/15 00:09:07;;;;;;;4.30;2.67;;;;;;;;;;4996286;28;20038;-48
2021/04/15 00:11:35;;;;;;;6.65;3.35;;;6.00;99.90;;;;;;5014092;28;20112;-48
2021/04/15 00:14:00;;;;;;;3.97;2.83;;;6.00;99.90;;;;;;5014011;28;20029;-47
2021/04/15 00:16:27;;;;;;;6.15;3.40;;;;;;;;;;5013621;28;20099;-48
2021/04/15 00:18:53;;;;;;;4.35;2.83;;;6.00;99.90;;;;;;5014050;28;20556;-48
2021/04/15 00:21:21;;;;;;;6.03;3.60;;;5.90;99.90;;;;;;4979628;28;20225;-47
2021/04/15 00:23:47;;;;;;;5.78;2.80;;;5.90;99.90;;;;;;5013932;28;20149;-47
2021/04/15 00:26:15;;;;;;;5.55;2.88;;;5.90;99.90;;;;;;5013804;28;20484;-48
2021/04/15 00:28:41;;;;;;;4.43;2.70;;;5.90;99.90;;;;;;5014041;28;20025;-49
2021/04/15 00:31:08;;;;;;;4.03;2.80;;;5.90;99.90;;;;;;5013741;28;20049;-48
2021/04/15 00:33:34;;;;;;;5.13;2.90;;;5.90;99.90;;;;;;5013824;28;20539;-47
2021/04/15 00:36:01;;;;;;;4.38;2.78;;;;;;;;;;4979643;28;20034;-48
2021/04/15 00:38:27;;;;;;;3.95;2.90;;;;;;;;;;5013654;28;20461;-48
2021/04/15 00:40:55;;;;;;;4.47;3.00;;;;;;;;;;4979341;28;20515;-48
2021/04/15 00:43:23;;;;;;;4.97;3.13;;;5.70;99.90;;;;;;5013617;28;20488;-48
2021/04/15 00:45:49;;;;;;;3.60;2.83;;;5.80;99.90;;;;;;5013678;28;20160;-48
2021/04/15 00:48:36;;;;;;;5.15;3.05;;;5.70;99.90;;;;;;5013322;28;20048;-47
2021/04/15 00:51:18;;;;;;;4.88;3.13;;;5.90;99.90;;;;;;5013653;28;20029;-48
2021/04/15 00:53:50;;;;;;;4.43;2.47;;;5.90;99.90;;;;;;5013927;28;20033;-48
2021/04/15 00:56:16;;;;;;;3.47;2.50;;;5.80;99.90;;;;;;5013687;28;20485;-48
2021/04/15 00:58:44;;;;;;;5.80;2.72;;;5.80;99.90;;;;;;5013317;28;20029;-47
2021/04/15 01:01:10;;;;;;;5.20;2.80;;;5.80;99.90;;;;;;5013394;28;20026;-48
2021/04/15 01:03:37;;;;;;;4.13;2.63;;;5.90;99.90;;;;;;5013667;28;20499;-48
2021/04/15 01:06:05;;;;;;;5.20;2.80;;;5.80;99.90;;;;;;5010561;28;20113;-48
2021/04/15 01:08:31;;;;;;;3.67;2.75;;;5.70;99.90;;;;;;5010382;28;20556;-46
2021/04/15 01:11:13;;;;;;;6.53;2.83;;;5.80;99.90;;;;;;5013461;28;20127;-48
2021/04/15 01:14:03;;;;;;;4.85;2.50;;;5.80;99.90;;;;;;5013520;28;20040;-48
2021/04/15 01:16:42;;;;;;;5.95;2.95;;;5.70;99.90;;;;;;5013713;28;20069;-47
2021/04/15 01:19:22;;;;;;;3.35;2.60;;;5.70;99.90;;;;;;4983127;28;20120;-48
2021/04/15 01:21:51;;;;;;;4.30;2.42;;;5.70;99.90;;;;;;5017008;28;20492;-48
2021/04/15 01:24:35;;;;;;;3.65;2.80;;;5.70;99.90;;;;;;5017030;28;20030;-47
2021/04/15 01:27:13;;;;;;;5.47;2.75;;;5.70;99.90;;;;;;5016996;28;20030;-47
2021/04/15 01:29:51;;;;;;;4.18;2.80;;;5.70;99.90;;;;;;4966543;28;20073;-47
2021/04/15 01:32:30;;;;;;;4.78;3.00;;;5.70;99.90;;;;;;4982526;28;20088;-47
2021/04/15 01:35:06;;;;;;;5.45;2.80;;;5.70;99.90;;;;;;5016887;28;20021;-48
2021/04/15 01:37:53;;;;;;;5.72;2.83;;;5.60;99.90;;;;;;5016755;28;20024;-47
2021/04/15 01:40:27;;;;;;;3.42;2.60;;;5.60;99.90;;;;;;5016664;28;20472;-47
2021/04/15 01:43:22;;;;;;;3.70;2.47;;;5.50;99.90;;;;;;5016871;28;20473;-47
2021/04/15 01:45:49;;;;;;;4.25;2.22;;;;;;;;;;5016457;28;20469;-48
2021/04/15 01:48:18;;;;;;;5.05;2.38;;;;;;;;;;5016614;28;20045;-47
2021/04/15 01:50:51;;;;;;;4.72;2.67;;;6.00;99.90;;;;;;5016611;28;20026;-47
2021/04/15 01:53:29;;;;;;;4.82;2.65;;;5.50;99.90;;;;;;5016407;28;20030;-48
2021/04/15 01:56:04;;;;;;;3.08;2.42;;;5.50;99.90;;;;;;5016600;28;20022;-47
2021/04/15 01:58:39;;;;;;;3.63;2.30;;;5.50;99.90;;;;;;5016172;28;20076;-47
2021/04/15 02:01:16;;;;;;;3.58;2.80;;;5.50;99.90;;;;;;5016264;28;20034;-48
2021/04/15 02:03:44;;;;;;;3.20;1.98;;;5.50;99.90;;;;;;5016314;28;20054;-48
2021/04/15 02:06:21;;;;;;;3.38;2.22;;;5.40;99.90;;;;;;5016626;28;20046;-48
2021/04/15 02:08:50;;;;;;;4.22;2.42;;;5.40;99.90;;;;;;5016402;28;20045;-47
2021/04/15 02:11:28;;;;;;;4.25;2.65;;;5.40;99.90;;;;;;5016079;28;20069;-48
2021/04/15 02:13:56;;;;;;;2.97;2.42;;;5.40;99.90;;;;;;4983126;28;20038;-47
2021/04/15 02:16:26;;;;;;;4.75;3.03;;;5.40;99.90;;;;;;5015967;28;20054;-47
2021/04/15 02:19:17;;;;;;;4.25;2.45;;;5.40;99.90;;;;;;5016098;28;20477;-49
2021/04/15 02:22:03;;;;;;;4.00;2.63;;;5.40;99.90;;;;;;5015992;28;20018;-48
2021/04/15 02:25:07;;;;;;;7.32;2.58;;;5.50;99.90;;;;;;5015855;28;20084;-48
2021/04/15 02:27:53;;;;;;;2.95;1.90;;;5.50;99.90;;;;;;5012722;28;20564;-47
2021/04/15 02:30:25;;;;;;;4.80;2.50;;;5.50;99.90;;;;;;5015314;28;20080;-47
2021/04/15 02:33:21;;;;;;;3.50;2.55;;;5.30;99.90;;;;;;4981879;28;20038;-48
2021/04/15 02:36:02;;;;;;;3.90;2.28;;;5.40;99.90;;;;;;5015713;28;20080;-48
2021/04/15 02:38:53;;;;;;;5.43;2.65;;;5.50;99.90;;;;;;5015684;28;20060;-47
2021/04/15 02:41:24;;;;;;;2.42;1.80;;;5.40;99.90;;;;;;5015078;28;20042;-48
2021/04/15 02:44:00;;;;;;;4.93;2.58;;;5.40;99.90;;;;;;4981359;28;20042;-48
2021/04/15 02:46:33;;;;;;;7.15;2.47;;;5.40;99.90;;;;;;5015363;28;20165;-48
2021/04/15 02:49:00;;;;;;;;;;;5.40;99.90;;;;;;4982420;28;20046;-48
2021/04/15 02:51:31;;;;;;;4.07;2.03;;;5.40;99.90;;;;;;5015540;28;19905;-48
2021/04/15 02:54:06;;;;;;;5.13;2.13;;;5.40;99.90;;;;;;5015357;28;20029;-47
2021/04/15 02:56:44;;;;;;;5.28;1.92;;;;;;;;;;5015434;28;20026;-48
2021/04/15 02:59:18;;;;;;;3.60;2.28;;;5.30;99.90;;;;;;5015424;28;20032;-48
2021/04/15 03:01:49;;;;;;;3.58;2.42;;;5.30;99.90;;;;;;5015553;28;20029;-47
2021/04/15 03:04:23;;;;;;;3.60;2.25;;;5.30;99.90;;;;;;5015183;28;20036;-48
2021/04/15 03:06:52;;;;;;;3.53;2.13;;;5.30;99.90;;;;;;5015279;28;20033;-47
2021/04/15 03:09:18;;;;;;;3.72;2.28;;;5.30;99.90;;;;;;5015213;28;20507;-47
2021/04/15 03:11:44;;;;;;;3.63;2.20;;;5.20;99.90;;;;;;5015041;28;20034;-47
2021/04/15 03:14:25;;;;;;;3.30;2.22;;;5.20;99.90;;;;;;5015098;28;20033;-47
2021/04/15 03:16:58;;;;;;;3.20;2.05;;;5.20;99.90;;;;;;5014640;28;20050;-48
2021/04/15 03:19:28;;;;;;;8.52;2.92;;;5.20;99.90;;;;;;5015065;28;20022;-48
2021/04/15 03:22:03;;;;;;;3.60;2.60;;;5.10;99.90;;;;;;5014410;28;20034;-49
2021/04/15 03:24:42;;;;;;;4.07;2.00;;;5.20;99.90;;;;;;5014460;28;20030;-48
2021/04/15 03:27:27;;;;;;;3.60;2.28;;;5.00;99.90;;;;;;4964076;28;20033;-47
2021/04/15 03:30:06;;;;;;;4.70;2.72;;;5.00;99.90;;;;;;4954133;29;20056;-48
2021/04/15 03:32:49;;;;;;;4.25;2.17;;;5.00;99.90;;;;;;4954182;29;20493;-48
2021/04/15 03:35:32;;;;;;;4.25;2.30;;;5.00;99.90;;;;;;4954154;29;20128;-48
2021/04/15 03:38:01;;;;;;;4.35;2.72;;;5.00;99.90;;;;;;4938094;29;20043;-48
2021/04/15 03:40:30;;;;;;;3.33;2.40;;;5.00;99.90;;;;;;4954032;28;20501;-48
2021/04/15 03:43:03;;;;;;;4.25;2.40;;;4.90;99.90;;;;;;4938640;29;20035;-48
2021/04/15 03:45:43;;;;;;;4.60;2.35;;;5.00;99.90;;;;;;4954110;29;20080;-48
2021/04/15 03:48:19;;;;;;;4.55;2.13;;;5.00;99.90;;;;;;4954452;29;20047;-47
2021/04/15 03:50:53;;;;;;;4.47;2.05;;;5.00;99.90;;;;;;4937864;29;20055;-47
2021/04/15 03:53:30;;;;;;;5.30;2.78;;;4.90;99.90;;;;;;4953932;29;20167;-48
2021/04/15 03:56:00;;;;;;;4.18;2.53;;;4.90;99.90;;;;;;4953796;29;20089;-48
2021/04/15 03:58:32;;;;;;;3.35;2.20;;;4.70;99.90;;;;;;4954151;29;20035;-47
2021/04/15 04:01:10;;;;;;;4.78;2.17;;;4.80;99.90;;;;;;4987097;28;20129;-48
2021/04/15 04:03:39;;;;;;;3.70;2.42;;;4.80;99.90;;;;;;5014313;28;20048;-47
2021/04/15 04:06:16;;;;;;;5.47;2.72;;;4.90;99.90;;;;;;5013879;28;20115;-49
2021/04/15 04:08:48;;;;;;;5.28;2.50;;;4.90;99.90;;;;;;5013865;28;20071;-49
2021/04/15 04:11:16;;;;;;;3.83;2.55;;;4.80;99.90;;;;;;5014091;28;20376;-47
2021/04/15 04:13:46;;;;;;;4.07;2.72;;;4.90;99.90;;;;;;5013931;28;20040;-47
2021/04/15 04:16:26;;;;;;;3.40;2.40;;;4.90;99.90;;;;;;5013719;28;20145;-48
2021/04/15 04:19:13;;;;;;;5.55;2.75;;;4.90;99.90;;;;;;5013697;28;20034;-47
2021/04/15 04:21:48;;;;;;;3.85;2.20;;;4.90;99.90;;;;;;4995762;28;20405;-48
2021/04/15 04:24:36;;;;;;;4.75;3.00;;;4.90;99.90;;;;;;5013911;28;20080;-47
2021/04/15 04:27:23;;;;;;;4.78;2.78;;;4.90;99.90;;;;;;5013789;28;20030;-47
2021/04/15 04:30:07;;;;;;;3.95;2.78;;;5.00;99.90;;;;;;4979423;28;20042;-48
2021/04/15 04:32:34;;;;;;;4.90;2.70;;;5.00;99.90;;;;;;5013787;28;20164;-48
2021/04/15 04:35:02;;;;;;;5.05;2.67;;;5.00;99.90;;;;;;5013888;28;20129;-48
2021/04/15 04:37:42;;;;;;;4.15;2.83;;;5.10;99.90;;;;;;4931265;28;20108;-48
2021/04/15 04:40:28;;;;;;;4.45;2.60;;;5.10;99.90;;;;;;5013562;28;20048;-48
2021/04/15 04:43:13;;;;;;;6.10;2.75;;;5.10;99.90;;;;;;5013549;28;20034;-49
2021/04/15 04:45:39;;;;;;;5.00;2.95;;;5.20;99.90;;;;;;5013768;28;20026;-49
2021/04/15 04:48:22;;;;;;;4.95;3.40;;;5.20;99.90;;;;;;5013720;28;20530;-47
2021/04/15 04:50:59;;;;;;;5.40;4.15;;;5.30;99.90;;;;;;5013690;28;20050;-48
2021/04/15 04:53:29;;;;;;;6.85;4.00;;;5.30;99.90;;;;;;5016973;28;20481;-48
2021/04/15 04:56:22;;;;;;;4.60;2.92;;;5.30;99.90;;;;;;5017314;28;20040;-47
2021/04/15 04:58:54;;;;;;;6.05;3.17;;;5.30;99.90;;;;;;5017312;28;20077;-48
2021/04/15 05:01:20;;;;;;;7.07;4.05;;;5.20;99.90;;;;;;5017600;28;20037;-48
2021/04/15 05:03:46;;;;;;;7.68;4.15;;;5.30;99.90;;;;;;5017241;28;20477;-48
2021/04/15 05:06:23;;;;;;;6.30;3.20;;;5.40;99.90;;;;;;4983311;28;20128;-47
2021/04/15 05:08:55;;;;;;;6.85;3.17;;;5.70;99.90;;;;;;5017203;28;20034;-47
2021/04/15 05:11:21;;;;;;;6.30;3.40;;;5.60;99.90;;;;;;5017199;28;20072;-49
2021/04/15 05:13:48;;;;;;;6.47;4.18;;;5.70;99.90;;;;;;5017002;28;20069;-48
2021/04/15 05:16:14;;;;;;;6.63;3.50;;;5.70;99.90;;;;;;4982578;28;20062;-48
2021/04/15 05:18:40;;;;;;;5.45;2.92;;;5.80;99.90;;;;;;5016253;28;20437;-49
2021/04/15 05:21:18;;;;;;;6.85;3.30;;;5.90;99.90;;;;;;5012943;28;20496;-48
2021/04/15 05:23:50;;;;;;;4.65;2.35;;;6.00;99.90;;;;;;5012009;28;20520;-48
2021/04/15 05:26:22;;;;;;;;;;;6.00;99.90;;;;;;5017473;28;20030;-48
2021/04/15 05:28:51;;;;;;;5.35;3.25;;;6.00;99.90;;;;;;5016830;28;19967;-49
2021/04/15 05:31:20;;;;;;;7.03;3.90;;;5.90;99.90;;;;;;5016785;28;20068;-48
2021/04/15 05:33:46;;;;;;;7.10;3.08;;;6.10;99.90;;;;;;5016743;28;20069;-48
2021/04/15 05:36:37;;;;;;;6.75;4.13;;;6.00;99.90;;;;;;4982665;28;20072;-49
2021/04/15 05:39:08;;;;;;;7.45;3.60;;;6.10;99.90;;;;;;5016778;28;20030;-49
2021/04/15 05:41:47;;;;;;;9.18;4.32;;;6.10;99.90;;;;;;5016886;28;20034;-52
2021/04/15 05:44:23;;;;;;;6.07;4.18;;;6.20;99.90;;;;;;5016521;28;20030;-51
2021/04/15 05:46:51;;;;;;;6.05;3.45;;;6.30;99.90;;;;;;5016231;28;20032;-51
2021/04/15 05:49:31;;;;;;;4.35;3.28;;;6.50;99.90;;;;;;5016443;28;20034;-51
2021/04/15 05:52:31;;;;;;;8.18;4.00;;;6.20;99.90;;;;;;5016355;28;20133;-51
2021/04/15 05:55:06;;;;;;;6.07;3.95;;;6.60;99.90;;;;;;4917994;29;20044;-51
2021/04/15 05:57:36;;;;;;;5.70;3.53;;;6.60;99.90;;;;;;4886465;29;20048;-52
2021/04/15 06:00:20;;;;;;;6.60;3.90;;;6.80;99.90;;;;;;4917576;29;20655;-52
2021/04/15 06:03:10;;;;;;;5.78;3.65;;;6.90;99.90;;;;;;4886895;29;20044;-47
2021/04/15 06:05:48;;;;;;;5.13;3.40;;;6.80;99.90;;;;;;4917475;29;20040;-48
2021/04/15 06:08:14;;;;;;;4.65;3.15;;;6.90;99.90;;;;;;4917458;29;20586;-49
2021/04/15 06:10:41;;;;;;;3.72;2.15;;;;;;;;;;4917669;29;20036;-47
2021/04/15 06:13:12;;;;;;;4.70;3.15;;;;;;;;;;4917468;29;20047;-46
2021/04/15 06:15:53;;;;;;;6.95;4.05;;;;;;;;;;4917127;29;20052;-49
2021/04/15 06:18:31;;;;;;;2.88;2.25;;;;;;;;;;4917017;29;20048;-47
2021/04/15 06:21:08;;;;;;;4.78;3.35;;;7.00;99.90;;;;;;4917199;29;20042;-48
2021/04/15 06:23:42;;;;;;;5.68;3.60;;;;;;;;;;4917262;29;20034;-47
2021/04/15 06:26:19;;;;;;;4.45;2.30;;;;;;;;;;4916369;29;20126;-49
2021/04/15 06:28:46;;;;;;;6.32;3.30;;;;;;;;;;4916695;29;20044;-49
2021/04/15 06:31:16;;;;;;;3.50;2.28;;;;;;;;;;4941679;28;20104;-53
2021/04/15 06:33:43;;;;;;;5.00;3.42;;;;;;;;;;5015724;28;20025;-52
2021/04/15 06:36:44;;;;;;;7.05;2.97;;;;;;;;;;5015666;28;20026;-50
2021/04/15 06:39:20;;;;;;;4.70;3.30;;;7.40;99.90;;;;;;4955065;29;20114;-50
2021/04/15 06:42:19;;;;;;;4.60;2.88;;;7.40;99.90;;;;;;4951878;29;20054;-49
2021/04/15 06:45:06;;;;;;;5.15;2.55;;;7.40;99.90;;;;;;4944088;29;20035;-51
2021/04/15 06:47:43;;;;;;;9.52;5.25;;;7.30;99.90;;;;;;4945028;29;20035;-50
2021/04/15 06:50:32;;;;;;;6.43;4.00;;;7.40;99.90;;;;;;4943201;29;20031;-51
2021/04/15 06:52:58;;;;;;;5.88;4.10;;;;;;;;;;4942470;29;20333;-50
2021/04/15 06:55:32;;;;;;;6.63;4.22;;;7.80;99.90;;;;;;4944147;29;20031;-49
2021/04/15 06:58:10;;;;;;;10.25;5.57;;;;;;;;;;4933114;29;20036;-51
2021/04/15 07:00:58;;;;;;;7.72;3.90;;;7.90;99.90;;;;;;4935502;29;20368;-51
2021/04/15 07:03:33;;;;;;;10.30;6.50;;;7.80;99.90;;;;;;4935945;29;20119;-51
2021/04/15 07:06:23;;;;;;;15.48;9.25;;;;;;;;;;4919241;29;20090;-52
2021/04/15 07:09:26;;;;;;;17.13;8.15;;;7.90;99.90;;;;;;4919034;29;20043;-53
2021/04/15 07:12:26;;;;;;;6.25;4.03;;;7.90;99.90;;;;;;4935611;29;20039;-49
2021/04/15 07:15:19;;;;;;;5.78;3.75;;;7.90;99.90;;;;;;4994994;28;20041;-51
2021/04/15 07:17:45;;;;;;;7.13;4.03;;;8.10;99.90;;;;;;4995421;28;20057;-52
2021/04/15 07:20:11;;;;;;;33.35;14.32;;;;;;;;;;4995494;28;20030;-52
2021/04/15 07:23:18;;;;;;;16.73;8.68;;;8.30;99.90;;;;;;4995061;28;20022;-51
2021/04/15 07:26:03;;;;;;;4.05;3.03;;;;;;;;;;4935390;29;20063;-52
2021/04/15 07:29:05;;;;;;;8.23;3.88;;;8.70;99.90;;;;;;4935196;29;20048;-51
2021/04/15 07:31:50;;;;;;;14.23;6.20;;;;;;;;;;4903278;29;20481;-50
2021/04/15 07:34:22;;;;;;;17.65;7.63;;;;;;;;;;4935079;29;20031;-50
2021/04/15 07:36:48;;;;;;;;;;;;;;;;;;4935402;29;20453;-50
2021/04/15 07:39:29;;;;;;;7.28;3.42;;;;;;;;;;4934644;29;19997;-50
2021/04/15 07:42:14;;;;;;;4.47;3.38;;;;;;;;;;4934274;29;20034;-52
2021/04/15 07:44:53;;;;;;;8.85;4.82;;;9.30;99.90;;;;;;4934712;29;20043;-50
2021/04/15 07:47:25;;;;;;;7.75;4.35;;;;;;;;;;4915532;29;20119;-53
2021/04/15 07:49:56;;;;;;;8.57;3.90;;;;;;;;;;4915790;29;20048;-52
2021/04/15 07:52:28;;;;;;;6.78;4.00;;;;;;;;;;4915373;29;20074;-50
2021/04/15 07:55:20;;;;;;;10.25;5.38;;;9.60;99.90;;;;;;4915814;29;20047;-53
2021/04/15 07:58:12;;;;;;;4.15;2.55;;;9.20;99.90;;;;;;4877840;29;20033;-50
2021/04/15 08:00:56;;;;;;;7.05;3.42;;;9.50;99.90;;;;;;4822555;29;20542;-50
2021/04/15 08:03:54;;;;;;;4.22;2.88;;;9.40;99.90;;;;;;4822823;29;20079;-50
2021/04/15 08:06:45;;;;;;;7.15;3.20;;;9.40;99.90;;;;;;4786148;30;20035;-51
2021/04/15 08:09:32;;;;;;;5.10;2.63;;;9.50;99.90;;;;;;4768465;30;20055;-50
2021/04/15 08:12:12;;;;;;;4.22;2.90;;;9.70;99.90;;;;;;4768412;30;20043;-51
2021/04/15 08:14:41;;;;;;;3.67;2.80;;;;;;;;;;4768472;30;20040;-50
2021/04/15 08:17:26;;;;;;;6.72;2.95;;;;;;;;;;4768368;30;20043;-50
2021/04/15 08:20:14;;;;;;;2.90;2.22;;;;;;;;;;4768655;30;20127;-49
2021/04/15 08:22:41;;;;;;;4.40;3.17;;;;;;;;;;4768300;30;20043;-51
2021/04/15 08:25:22;;;;;;;5.40;2.13;;;;;;;;;;4768394;30;20043;-51
2021/04/15 08:28:01;;;;;;;4.20;2.97;;;;;;;;;;4767762;30;20077;-49
2021/04/15 08:30:54;;;;;;;5.07;3.03;;;10.80;99.90;;;;;;4738554;30;20195;-52
2021/04/15 08:33:47;;;;;;;21.30;9.73;;;10.30;99.90;;;;;;4768525;30;20043;-51
2021/04/15 08:36:50;;;;;;;4.28;2.85;;;10.40;99.90;;;;;;4786323;30;20510;-50
2021/04/15 08:39:34;;;;;;;6.90;3.10;;;10.70;99.90;;;;;;4840655;29;20050;-51
2021/04/15 08:42:18;;;;;;;6.55;3.55;;;10.40;99.90;;;;;;4840299;29;20030;-51
2021/04/15 08:44:54;;;;;;;27.08;9.60;;;10.60;99.90;;;;;;4858387;29;20029;-52
2021/04/15 08:47:49;;;;;;;5.68;3.28;;;10.20;99.90;;;;;;4952096;28;20482;-51
2021/04/15 08:50:24;;;;;;;9.80;4.75;;;10.50;99.90;;;;;;4974579;28;20441;-51
2021/04/15 08:53:12;;;;;;;6.45;3.70;;;10.70;99.90;;;;;;4974230;28;20031;-51
2021/04/15 08:55:47;;;;;;;3.60;2.30;;;11.00;99.90;;;;;;4974648;28;20067;-53
2021/04/15 08:58:41;;;;;;;13.65;6.22;;;11.20;99.90;;;;;;4974281;28;20048;-48
2021/04/15 09:01:21;;;;;;;4.70;2.90;;;11.10;99.90;;;;;;4917277;29;20067;-48
2021/04/15 09:04:10;;;;;;;2.20;1.90;;;11.30;99.90;;;;;;4933746;29;20032;-49
2021/04/15 09:07:02;;;;;;;4.13;2.90;;;11.10;99.90;;;;;;4933389;29;20143;-48
2021/04/15 09:09:42;;;;;;;4.65;3.00;;;11.40;99.90;;;;;;4933779;29;20051;-49
2021/04/15 09:12:18;;;;;;;7.00;3.47;;;11.20;99.90;;;;;;4916980;29;20036;-49
2021/04/15 09:14:46;;;;;;;6.07;3.42;;;10.90;99.90;;;;;;4901450;29;20046;-49
2021/04/15 09:17:32;;;;;;;4.30;2.90;;;11.20;99.90;;;;;;4932401;29;20047;-53
2021/04/15 09:20:39;;;;;;;2.92;2.50;;;11.50;99.90;;;;;;4950287;29;20497;-53
2021/04/15 09:23:16;;;;;;;4.93;2.88;;;;;;;;;;4952781;29;20031;-51
2021/04/15 09:25:46;;;;;;;4.95;3.65;;;;;;;;;;4952743;29;20074;-51
2021/04/15 09:28:38;;;;;;;3.75;2.95;;;12.10;99.90;;;;;;4952268;29;20035;-53
2021/04/15 09:43:13;;;;;;;4.25;2.90;;;11.30;99.90;;;;;;5173609;27;20357;-48
2021/04/15 09:45:38;;;;;;;;;;;10.70;99.90;;;;;;5174024;27;20411;-49
2021/04/15 09:48:16;;;;;;;5.07;2.72;;;10.60;99.90;;;;;;5173008;27;19907;-51
2021/04/15 09:50:51;;;;;;;3.00;1.90;;;10.30;99.90;;;;;;5173287;27;20375;-51
2021/04/15 09:53:48;;;;;;;2.50;2.30;;;9.90;99.90;;;;;;5154483;27;20037;-49
2021/04/15 09:56:19;;;;;;;5.18;2.60;;;9.80;99.90;;;;;;5173608;27;20022;-51
2021/04/15 09:58:57;;;;;;;5.32;2.72;;;10.00;99.90;;;;;;5173029;27;20379;-51
2021/04/15 10:01:45;;;;;;;3.33;2.58;;;10.10;99.90;;;;;;5172981;27;20026;-51
2021/04/15 10:04:14;;;;;;;4.18;2.58;;;;;;;;;;5173515;27;20033;-52
2021/04/15 10:06:45;;;;;;;5.88;3.13;;;10.60;99.90;;;;;;5172954;27;20025;-52
2021/04/15 10:09:34;;;;;;;1.90;1.70;;;10.30;99.90;;;;;;5173066;27;20026;-47
2021/04/15 10:12:18;;;;;;;4.97;3.00;;;10.00;99.90;;;;;;5173050;27;20061;-50
2021/04/15 10:14:44;;;;;;;3.75;2.58;;;10.10;99.90;;;;;;5172931;27;20472;-51
2021/04/15 10:17:15;;;;;;;2.40;1.15;;;10.70;99.90;;;;;;5172869;27;20054;-50
2021/04/15 10:20:05;;;;;;;4.13;2.65;;;10.40;99.90;;;;;;5172823;27;20071;-49
2021/04/15 10:22:50;;;;;;;3.13;2.30;;;;;;;;;;5172539;27;20014;-50
2021/04/15 10:25:24;;;;;;;5.20;3.25;;;;;;;;;;5172642;27;20065;-52
2021/04/15 10:28:27;;;;;;;5.53;2.97;;;11.00;99.90;;;;;;5172525;27;20022;-50
2021/04/15 10:31:17;;;;;;;4.28;3.25;;;11.60;99.90;;;;;;5172309;27;20034;-53
2021/04/15 10:34:00;;;;;;;3.80;2.97;;;11.50;99.90;;;;;;5171076;27;20464;-51
2021/04/15 10:36:41;;;;;;;5.30;2.80;;;11.40;99.90;;;;;;5172288;27;20358;-50
2021/04/15 10:39:21;;;;;;;4.30;2.78;;;11.40;99.90;;;;;;5172343;27;20409;-51
2021/04/15 10:42:06;;;;;;;4.18;1.98;;;11.30;99.90;;;;;;5165074;27;20118;-52
2021/04/15 10:45:26;;;;;;;3.03;1.65;;;11.10;99.90;;;;;;5153178;27;20540;-51
2021/04/15 10:48:13;;;;;;;5.65;2.58;;;10.90;99.90;;;;;;5094292;28;20024;-53
2021/04/15 10:50:58;;;;;;;3.92;2.85;;;10.80;99.90;;;;;;5094669;28;20036;-53
2021/04/15 10:53:48;;;;;;;4.07;3.17;;;11.10;99.90;;;;;;5094469;28;20518;-53
2021/04/15 10:56:25;;;;;;;2.88;2.20;;;11.10;99.90;;;;;;5061129;28;20111;-49
2021/04/15 10:59:05;;;;;;;2.72;1.95;;;10.90;99.90;;;;;;5094291;28;20024;-51
2021/04/15 11:01:42;;;;;;;4.05;2.40;;;11.00;99.90;;;;;;5094194;28;20024;-53
2021/04/15 11:04:13;;;;;;;2.10;1.60;;;11.30;99.90;;;;;;5094280;28;20386;-52
2021/04/15 11:06:52;;;;;;;4.97;2.85;;;11.20;99.90;;;;;;5094133;28;20024;-53
2021/04/15 11:09:35;;;;;;;2.28;1.98;;;11.00;99.90;;;;;;5094290;28;20123;-54
2021/04/15 11:12:13;;;;;;;7.80;4.13;;;10.70;99.90;;;;;;5060966;28;20375;-53
2021/04/15 11:14:41;;;;;;;4.65;3.65;;;;;;;;;;5094110;28;20032;-52
2021/04/15 11:17:31;;;;;;;6.60;3.55;;;11.10;99.90;;;;;;5093916;28;20025;-52
2021/04/15 11:20:24;;;;;;;8.77;4.32;;;11.20;99.90;;;;;;5001507;28;20397;-53
2021/04/15 11:22:53;;;;;;;8.75;5.07;;;11.40;99.90;;;;;;5106285;28;20065;-50
2021/04/15 11:25:29;;;;;;;14.80;9.73;;;11.00;99.90;;;;;;5114423;28;20088;-53
2021/04/15 11:27:59;;;;;;;14.40;8.50;;;11.20;99.90;;;;;;5114245;28;20141;-52
2021/04/15 11:30:39;;;;;;;25.13;11.30;;;11.10;99.90;;;;;;5114458;28;20042;-50
2021/04/15 11:33:07;;;;;;;40.38;18.95;;;10.80;99.90;;;;;;5097141;28;20069;-51
2021/04/15 11:35:33;;;;;;;5.10;3.47;;;11.00;99.90;;;;;;5114318;28;20028;-52
2021/04/15 11:38:16;;;;;;;8.48;5.18;;;11.00;99.90;;;;;;5114753;28;20036;-53
2021/04/15 11:40:48;;;;;;;6.15;4.18;;;11.10;99.90;;;;;;5113719;28;20485;-52
2021/04/15 11:43:33;;;;;;;5.07;3.15;;;11.00;99.90;;;;;;5096819;28;20039;-53
2021/04/15 11:46:22;;;;;;;2.55;2.35;;;11.50;99.90;;;;;;5113957;28;20111;-51
2021/04/15 11:49:04;;;;;;;5.28;3.78;;;11.10;99.90;;;;;;5113680;28;20026;-52
2021/04/15 11:51:53;;;;;;;5.30;3.30;;;10.80;99.90;;;;;;5093161;28;20077;-51
2021/04/15 11:54:36;;;;;;;6.70;3.47;;;10.90;99.90;;;;;;5092289;28;20475;-53
2021/04/15 11:57:24;;;;;;;4.00;3.03;;;11.20;99.90;;;;;;5114797;27;20157;-51
2021/04/15 12:00:17;;;;;;;5.05;3.15;;;11.30;99.90;;;;;;5117190;27;20155;-52
2021/04/15 12:03:03;;;;;;;5.97;3.78;;;;;;;;;;5073199;28;20032;-53
2021/04/15 12:05:41;;;;;;;4.32;2.92;;;12.10;99.90;;;;;;5072588;28;20024;-48
2021/04/15 12:08:15;;;;;;;10.02;4.82;;;;;;;;;;5072712;28;20066;-53
2021/04/15 12:10:56;;;;;;;4.68;3.40;;;12.40;99.90;;;;;;5072509;28;20064;-51
2021/04/15 12:13:29;;;;;;;5.30;3.47;;;12.30;99.90;;;;;;5072597;28;20041;-50
2021/04/15 12:16:13;;;;;;;4.72;2.90;;;12.40;99.90;;;;;;5072433;28;20029;-52
2021/04/15 12:18:41;;;;;;;4.57;2.65;;;12.40;99.90;;;;;;5072435;28;20036;-49
2021/04/15 12:21:32;;;;;;;4.85;3.20;;;12.10;99.90;;;;;;5055767;28;20036;-52
2021/04/15 12:24:15;;;;;;;11.40;6.15;;;12.10;99.90;;;;;;5092977;28;20062;-50
2021/04/15 12:27:08;;;;;;;44.40;16.38;;;;;;;;;;5092607;28;20036;-50
2021/04/15 12:29:39;;;;;;;7.50;4.85;;;12.50;99.90;;;;;;5090789;28;20036;-54
2021/04/15 12:32:11;;;;;;;6.15;3.15;;;12.50;99.90;;;;;;5092188;28;20185;-53
2021/04/15 12:34:45;;;;;;;10.55;4.82;;;12.20;99.90;;;;;;5092428;28;20093;-51
2021/04/15 12:37:20;;;;;;;9.20;3.85;;;;;;;;;;5092374;28;20024;-50
2021/04/15 12:40:10;;;;;;;18.25;7.47;;;11.70;99.90;;;;;;5126573;27;20034;-52
2021/04/15 12:42:42;;;;;;;22.05;7.18;;;11.50;99.90;;;;;;5155705;27;20129;-51
2021/04/15 12:45:45;;;;;;;33.70;14.45;;;11.30;99.90;;;;;;5155739;27;20026;-51
2021/04/15 12:48:19;;;;;;;6.10;3.03;;;;;;;;;;5071939;28;20040;-53
2021/04/15 12:50:45;;;;;;;12.95;6.93;;;;;;;;;;5072007;28;20127;-51
2021/04/15 12:53:14;;;;;;;9.25;5.05;;;10.90;99.90;;;;;;5055499;28;20067;-50
2021/04/15 12:55:40;;;;;;;7.90;5.20;;;;;;;;;;5071781;28;20032;-52
2021/04/15 12:58:08;;;;;;;12.13;6.72;;;10.70;99.90;;;;;;5071621;28;20025;-50
2021/04/15 13:00:43;;;;;;;6.93;3.70;;;10.80;99.90;;;;;;5069701;28;20391;-53
2021/04/15 13:03:21;;;;;;;4.22;2.85;;;10.80;99.90;;;;;;5070010;28;20093;-51
2021/04/15 13:06:07;;;;;;;3.95;2.47;;;10.90;99.90;;;;;;5069937;28;20040;-53
2021/04/15 13:08:33;;;;;;;7.10;3.53;;;10.50;99.90;;;;;;5054396;28;20098;-53
2021/04/15 13:11:03;;;;;;;7.95;2.50;;;10.60;99.90;;;;;;5071230;28;20040;-51
2021/04/15 13:13:41;;;;;;;4.85;3.13;;;10.90;99.90;;;;;;5071279;28;20028;-52
2021/04/15 13:16:27;;;;;;;3.63;2.70;;;;;;;;;;5071436;28;20032;-51
2021/04/15 13:18:53;;;;;;;4.50;3.15;;;;;;;;;;5071294;28;20037;-52
2021/04/15 13:21:34;;;;;;;4.53;2.72;;;12.40;99.90;;;;;;5053962;28;20132;-51
2021/04/15 13:24:01;;;;;;;3.03;2.50;;;;;;;;;;5072453;27;20076;-49
2021/04/15 13:26:34;;;;;;;3.55;2.35;;;14.20;99.90;;;;;;5154946;27;20059;-51
2021/04/15 13:29:02;;;;;;;2.35;1.85;;;;;;;;;;5128387;27;20042;-53
2021/04/15 13:31:37;;;;;;;4.32;2.60;;;;;;;;;;5145731;27;20031;-50
2021/04/15 13:34:04;;;;;;;2.90;2.00;;;;;;;;;;5148869;27;20393;-53
2021/04/15 13:36:30;;;;;;;2.65;2.03;;;;;;;;;;5154937;27;20118;-52
2021/04/15 13:39:00;;;;;;;6.65;2.50;;;;;;;;;;5153301;27;20469;-51
2021/04/15 13:41:27;;;;;;;30.33;10.48;;;14.20;99.90;;;;;;5154687;27;20393;-54
2021/04/15 13:43:55;;;;;;;2.00;1.50;;;;;;;;;;5154992;27;20034;-51
2021/04/15 13:46:22;;;;;;;34.55;12.20;;;;;;;;;;5154902;27;20118;-51
2021/04/15 13:48:51;;;;;;;19.67;6.43;;;;;;;;;;5154937;27;20069;-51
2021/04/15 13:51:22;;;;;;;21.50;9.43;;;;;;;;;;5135498;27;20035;-54
2021/04/15 13:54:07;;;;;;;6.40;4.00;;;;;;;;;;5111466;28;20039;-52
2021/04/15 13:56:59;;;;;;;7.75;3.40;;;;;;;;;;5111570;28;20035;-50
2021/04/15 13:59:38;;;;;;;4.95;2.42;;;;;;;;;;5111410;28;20044;-51
2021/04/15 14:02:10;;;;;;;7.57;4.00;;;;;;;;;;5111489;28;20081;-54
2021/04/15 14:05:02;;;;;;;8.75;4.15;;;;;;;;;;5111392;28;20039;-55
2021/04/15 14:07:32;;;;;;;3.88;2.35;;;;;;;;;;5110787;28;20505;-51
2021/04/15 14:10:10;;;;;;;6.70;3.20;;;;;;;;;;5111465;28;20028;-51
2021/04/15 14:12:59;;;;;;;5.03;2.20;;;13.50;93.50;;;;;;5111480;28;20432;-50
2021/04/15 14:15:34;;;;;;;11.43;5.25;;;;;;;;;;5111215;28;20031;-53
2021/04/15 14:18:09;;;;;;;6.10;3.22;;;;;;;;;;5113048;28;20035;-51
2021/04/15 14:20:35;;;;;;;4.57;2.78;;;;;;;;;;5115326;28;20169;-54
2021/04/15 14:23:04;;;;;;;4.18;1.92;;;14.00;99.90;;;;;;5114981;28;20067;-55